createdAt,value
2019-03-08T00:01:01.141Z,99081.26
2019-03-08T00:03:28.336Z,99076.58
2019-03-08T00:05:55.519Z,99075.72
2019-03-08T00:08:23.047Z,99073.58
2019-03-08T00:10:50.230Z,99068.00
2019-03-08T00:13:19.968Z,99059.29
2019-03-08T00:15:47.273Z,99062.08
2019-03-08T00:18:14.457Z,99058.92
2019-03-08T00:20:41.679Z,99061.87
2019-03-08T00:23:08.893Z,99058.73
2019-03-08T00:25:36.200Z,99056.54
2019-03-08T00:28:03.615Z,99058.42
2019-03-08T00:30:31.146Z,99043.88
2019-03-08T00:32:58.609Z,99050.06
2019-03-08T00:35:25.888Z,99053.86
2019-03-08T00:37:53.191Z,99049.47
2019-03-08T00:40:20.540Z,99056.77
2019-03-08T00:42:47.859Z,99054.23
2019-03-08T00:45:15.248Z,99045.69
2019-03-08T00:47:43.566Z,99045.47
2019-03-08T00:50:11.339Z,99044.80
2019-03-08T00:52:41.577Z,99043.86
2019-03-08T00:55:08.912Z,99042.09
2019-03-08T00:57:36.226Z,99046.56
2019-03-08T01:00:03.783Z,99036.55
2019-03-08T01:02:35.810Z,99037.78
2019-03-08T01:05:03.449Z,99052.22
2019-03-08T01:07:30.774Z,99051.59
2019-03-08T01:09:58.185Z,99048.75
2019-03-08T01:12:26.506Z,99049.31
2019-03-08T01:14:53.776Z,99045.83
2019-03-08T01:17:22.973Z,99051.56
2019-03-08T01:19:50.196Z,99051.56
2019-03-08T01:22:17.535Z,99060.44
2019-03-08T01:24:44.816Z,99063.27
2019-03-08T01:27:12.122Z,99066.45
2019-03-08T01:29:39.397Z,99060.72
2019-03-08T01:32:11.925Z,99072.22
2019-03-08T01:34:39.303Z,99063.22
2019-03-08T01:37:06.519Z,99059.97
2019-03-08T01:39:33.758Z,99065.77
2019-03-08T01:42:01.141Z,99068.92
2019-03-08T01:44:28.346Z,99066.07
2019-03-08T01:46:55.536Z,99071.17
2019-03-08T01:49:22.806Z,99064.98
2019-03-08T01:51:50.038Z,99058.62
2019-03-08T01:54:17.780Z,99063.45
2019-03-08T01:56:44.999Z,99063.08
2019-03-08T01:59:13.555Z,99057.00
2019-03-08T02:01:40.828Z,99060.64
2019-03-08T02:04:08.222Z,99064.39
2019-03-08T02:06:35.424Z,99065.92
2019-03-08T02:09:03.581Z,99063.94
2019-03-08T02:11:30.770Z,99069.81
2019-03-08T02:13:58.052Z,99062.77
2019-03-08T02:16:25.230Z,99064.23
2019-03-08T02:18:52.402Z,99057.67
2019-03-08T02:21:19.666Z,99063.03
2019-03-08T02:23:46.854Z,99064.49
2019-03-08T02:26:14.071Z,99059.70
2019-03-08T02:28:41.289Z,99053.07
2019-03-08T02:31:08.450Z,99057.78
2019-03-08T02:33:35.690Z,99055.99
2019-03-08T02:36:02.906Z,99051.38
2019-03-08T02:38:30.194Z,99057.94
2019-03-08T02:40:57.487Z,99055.84
2019-03-08T02:43:24.886Z,99057.94
2019-03-08T02:45:52.136Z,99059.09
2019-03-08T02:48:19.325Z,99065.80
2019-03-08T02:50:46.528Z,99065.88
2019-03-08T02:53:14.243Z,99064.11
2019-03-08T02:55:41.458Z,99065.88
2019-03-08T02:58:08.745Z,99074.19
2019-03-08T03:00:45.971Z,99080.75
2019-03-08T03:03:13.150Z,99089.55
2019-03-08T03:05:40.656Z,99098.80
2019-03-08T03:08:08.044Z,99095.80
2019-03-08T03:10:35.310Z,99107.97
2019-03-08T03:13:02.603Z,99101.90
2019-03-08T03:15:29.850Z,99110.52
2019-03-08T03:17:57.130Z,99122.50
2019-03-08T03:20:24.374Z,99128.27
2019-03-08T03:22:51.870Z,99130.02
2019-03-08T03:25:19.237Z,99136.68
2019-03-08T03:27:46.451Z,99145.06
2019-03-08T03:30:13.849Z,99148.63
2019-03-08T03:32:41.166Z,99151.24
2019-03-08T03:35:08.543Z,99160.03
2019-03-08T03:37:35.784Z,99153.00
2019-03-08T03:40:04.056Z,99159.34
2019-03-08T03:42:31.280Z,99164.59
2019-03-08T03:44:58.460Z,99169.83
2019-03-08T03:47:25.680Z,99167.58
2019-03-08T03:49:53.014Z,99184.63
2019-03-08T03:52:20.350Z,99174.69
2019-03-08T03:54:47.533Z,99184.25
2019-03-08T03:57:14.927Z,99195.11
2019-03-08T03:59:42.169Z,99200.91
2019-03-08T04:02:09.374Z,99205.73
2019-03-08T04:04:36.628Z,99207.22
2019-03-08T04:07:03.836Z,99214.16
2019-03-08T04:09:31.046Z,99227.33
2019-03-08T04:11:58.466Z,99231.41
2019-03-08T04:14:25.695Z,99220.09
2019-03-08T04:16:52.995Z,99230.95
2019-03-08T04:19:20.251Z,99220.84
2019-03-08T04:21:47.602Z,99232.95
2019-03-08T04:24:14.915Z,99236.41
2019-03-08T04:26:42.181Z,99248.30
2019-03-08T04:29:09.723Z,99233.84
2019-03-08T04:31:36.902Z,99252.13
2019-03-08T04:34:04.167Z,99260.72
2019-03-08T04:36:31.418Z,99267.27
2019-03-08T04:38:58.569Z,99278.14
2019-03-08T04:41:25.901Z,99282.52
2019-03-08T04:43:53.082Z,99278.20
2019-03-08T04:46:20.570Z,99285.14
2019-03-08T04:48:47.787Z,99285.14
2019-03-08T04:51:14.984Z,99288.07
2019-03-08T04:53:42.209Z,99297.17
2019-03-08T04:56:09.485Z,99302.91
2019-03-08T04:58:36.835Z,99309.84
2019-03-08T05:01:03.998Z,99318.63
2019-03-08T05:03:31.441Z,99324.25
2019-03-08T05:06:00.744Z,99342.22
2019-03-08T05:08:27.791Z,99353.70
2019-03-08T05:10:55.107Z,99356.02
2019-03-08T05:13:22.300Z,99359.84
2019-03-08T05:15:49.442Z,99367.81
2019-03-08T05:18:16.663Z,99371.80
2019-03-08T05:20:43.835Z,99384.84
2019-03-08T05:23:11.032Z,99401.02
2019-03-08T05:25:38.891Z,99405.72
2019-03-08T05:28:06.212Z,99415.75
2019-03-08T05:30:33.427Z,99423.23
2019-03-08T05:33:00.631Z,99427.55
2019-03-08T05:35:28.025Z,99438.67
2019-03-08T05:37:55.202Z,99455.52
2019-03-08T05:40:22.488Z,99462.17
2019-03-08T05:42:49.660Z,99464.54
2019-03-08T05:45:16.999Z,99475.15
2019-03-08T05:47:44.228Z,99484.83
2019-03-08T05:50:11.485Z,99488.92
2019-03-08T05:52:38.971Z,99507.77
2019-03-08T05:55:06.275Z,99515.64
2019-03-08T05:57:33.506Z,99525.34
2019-03-08T06:00:00.727Z,99530.20
2019-03-08T06:02:27.916Z,99545.39
2019-03-08T06:04:55.207Z,99562.96
2019-03-08T06:07:22.330Z,99571.66
2019-03-08T06:09:49.522Z,99587.86
2019-03-08T06:12:16.754Z,99600.10
2019-03-08T06:14:44.029Z,99615.38
2019-03-08T06:17:11.400Z,99624.13
2019-03-08T06:19:38.624Z,99637.17
2019-03-08T06:22:28.972Z,99640.13
2019-03-08T06:24:56.327Z,99659.02
2019-03-08T06:27:23.975Z,99665.02
2019-03-08T06:29:51.168Z,99675.66
2019-03-08T06:32:18.539Z,99681.28
2019-03-08T06:34:51.797Z,99689.92
2019-03-08T06:37:19.118Z,99698.45
2019-03-08T06:39:46.866Z,99716.52
2019-03-08T06:42:14.074Z,99729.23
2019-03-08T06:44:41.514Z,99734.86
2019-03-08T06:47:08.806Z,99754.36
2019-03-08T06:49:36.122Z,99746.88
2019-03-08T06:52:03.348Z,99778.28
2019-03-08T06:54:30.569Z,99790.02
2019-03-08T06:57:01.497Z,99801.38
2019-03-08T06:59:51.846Z,99814.34
2019-03-08T07:02:19.278Z,99829.42
2019-03-08T07:04:46.531Z,99836.45
2019-03-08T07:07:13.951Z,99843.45
2019-03-08T07:09:41.178Z,99858.27
2019-03-08T07:12:08.508Z,99864.48
2019-03-08T07:14:35.686Z,99879.37
2019-03-08T07:17:02.868Z,99883.31
2019-03-08T07:19:30.150Z,99896.03
2019-03-08T07:22:03.602Z,99902.64
2019-03-08T07:25:02.552Z,99907.35
2019-03-08T07:27:52.213Z,99923.42
2019-03-08T07:30:42.140Z,99933.52
2019-03-08T07:33:17.833Z,99952.02
2019-03-08T07:36:03.815Z,99949.88
2019-03-08T07:38:50.618Z,99954.73
2019-03-08T07:41:41.930Z,99976.53
2019-03-08T07:44:34.293Z,100002.20
2019-03-08T07:47:33.062Z,100004.69
2019-03-08T07:50:19.923Z,100027.27
2019-03-08T07:52:55.930Z,100034.55
2019-03-08T07:55:29.339Z,100051.50
2019-03-08T07:58:09.229Z,100054.76
2019-03-08T08:01:01.778Z,100069.52
2019-03-08T08:03:51.460Z,100076.47
2019-03-08T08:06:38.217Z,100087.25
2019-03-08T08:09:19.150Z,100104.34
2019-03-08T08:12:08.662Z,100117.36
2019-03-08T08:14:54.043Z,100127.70
2019-03-08T08:17:40.815Z,100139.38
2019-03-08T08:20:16.628Z,100141.91
2019-03-08T08:23:12.449Z,100158.33
2019-03-08T08:25:56.217Z,100162.74
2019-03-08T08:28:49.882Z,100182.81
2019-03-08T08:31:25.330Z,100195.45
2019-03-08T08:34:15.040Z,100203.45
2019-03-08T08:37:01.796Z,100218.32
2019-03-08T08:40:10.909Z,100227.89
2019-03-08T08:43:07.197Z,100233.19
2019-03-08T08:45:52.727Z,100238.25
2019-03-08T08:48:45.572Z,100251.31
2019-03-08T08:51:37.874Z,100260.84
2019-03-08T08:54:23.267Z,100267.41
2019-03-08T08:56:56.670Z,100288.00
2019-03-08T08:59:35.865Z,100290.92
2019-03-08T09:02:23.014Z,100300.11
2019-03-08T09:04:57.199Z,100314.02
2019-03-08T09:07:46.718Z,100315.33
2019-03-08T09:10:33.460Z,100320.88
2019-03-08T09:13:13.993Z,100318.66
2019-03-08T09:15:59.471Z,100328.76
2019-03-08T09:19:01.227Z,100336.72
2019-03-08T09:21:51.094Z,100342.80
2019-03-08T09:24:33.159Z,100352.67
2019-03-08T09:27:25.783Z,100366.98
2019-03-08T09:30:08.300Z,100367.63
2019-03-08T09:32:42.175Z,100378.95
2019-03-08T09:35:35.035Z,100377.13
2019-03-08T09:38:21.405Z,100393.48
2019-03-08T09:41:06.889Z,100412.77
2019-03-08T09:43:40.587Z,100418.81
2019-03-08T09:46:17.687Z,100421.87
2019-03-08T09:48:54.563Z,100430.23
2019-03-08T09:51:44.210Z,100448.20
2019-03-08T09:54:27.768Z,100451.75
2019-03-08T09:57:26.556Z,100454.37
2019-03-08T10:00:19.205Z,100473.50
2019-03-08T10:03:14.971Z,100476.78
2019-03-08T10:06:04.362Z,100485.05
2019-03-08T10:08:45.862Z,100489.00
2019-03-08T10:11:27.987Z,100504.55
2019-03-08T10:14:17.661Z,100518.16
2019-03-08T10:16:51.857Z,100518.72
2019-03-08T10:19:30.552Z,100529.17
2019-03-08T10:22:36.644Z,100531.80
2019-03-08T10:25:35.614Z,100542.25
2019-03-08T10:28:17.497Z,100538.76
2019-03-08T10:31:07.763Z,100547.98
2019-03-08T10:33:47.616Z,100543.66
2019-03-08T10:36:40.470Z,100548.80
2019-03-08T10:39:25.953Z,100578.11
2019-03-08T10:42:09.543Z,100574.61
2019-03-08T10:44:42.618Z,100576.33
2019-03-08T10:47:31.097Z,100585.56
2019-03-08T10:50:07.319Z,100592.95
2019-03-08T10:53:06.194Z,100599.80
2019-03-08T10:55:46.881Z,100609.52
2019-03-08T10:58:33.651Z,100623.67
2019-03-08T11:01:29.270Z,100630.91
2019-03-08T11:04:24.738Z,100639.23
2019-03-08T11:07:20.504Z,100655.10
2019-03-08T11:09:58.181Z,100647.55
2019-03-08T11:12:56.905Z,100652.80
2019-03-08T11:15:58.815Z,100664.66
2019-03-08T11:18:45.586Z,100660.16
2019-03-08T11:21:28.260Z,100670.11
2019-03-08T11:24:21.145Z,100680.57
2019-03-08T11:27:13.930Z,100683.12
2019-03-08T11:29:55.718Z,100700.23
2019-03-08T11:32:42.605Z,100700.66
2019-03-08T11:35:28.327Z,100709.89
2019-03-08T11:38:10.539Z,100720.08
2019-03-08T11:40:58.765Z,100728.50
2019-03-08T11:43:35.263Z,100735.55
2019-03-08T11:46:08.848Z,100742.07
2019-03-08T11:48:55.579Z,100750.78
2019-03-08T11:51:41.154Z,100764.20
2019-03-08T11:54:29.595Z,100765.38
2019-03-08T11:57:28.590Z,100770.55
2019-03-08T12:00:09.777Z,100779.87
2019-03-08T12:02:55.412Z,100789.64
2019-03-08T12:05:51.304Z,100793.75
2019-03-08T12:08:40.842Z,100797.94
2019-03-08T12:11:30.371Z,100809.72
2019-03-08T12:14:15.854Z,100818.28
2019-03-08T12:17:02.612Z,100836.83
2019-03-08T12:19:38.743Z,100829.93
2019-03-08T12:22:19.005Z,100829.13
2019-03-08T12:24:55.331Z,100856.12
2019-03-08T12:27:29.188Z,100848.97
2019-03-08T12:30:18.698Z,100835.62
2019-03-08T12:33:11.597Z,100848.97
2019-03-08T12:35:48.543Z,100871.23
2019-03-08T12:38:41.147Z,100860.21
2019-03-08T12:41:23.404Z,100861.01
2019-03-08T12:44:09.177Z,100855.01
2019-03-08T12:46:47.814Z,100857.96
2019-03-08T12:49:40.836Z,100862.34
2019-03-08T12:52:30.431Z,100866.12
2019-03-08T12:55:09.627Z,100873.10
2019-03-08T12:57:47.901Z,100870.98
2019-03-08T13:00:33.458Z,100883.80
2019-03-08T13:03:20.419Z,100882.61
2019-03-08T13:06:13.038Z,100883.48
2019-03-08T13:09:12.004Z,100895.71
2019-03-08T13:11:39.206Z,100887.86
2019-03-08T13:14:06.476Z,100893.59
2019-03-08T13:16:33.766Z,100895.83
2019-03-08T13:19:00.987Z,100901.33
2019-03-08T13:21:28.272Z,100897.35
2019-03-08T13:23:55.493Z,100898.02
2019-03-08T13:26:22.704Z,100900.80
2019-03-08T13:28:49.893Z,100897.07
2019-03-08T13:31:17.055Z,100904.48
2019-03-08T13:33:44.362Z,100912.47
2019-03-08T13:36:11.562Z,100916.92
2019-03-08T13:38:38.751Z,100923.53
2019-03-08T13:41:06.098Z,100927.03
2019-03-08T13:43:33.263Z,100945.49
2019-03-08T13:46:00.571Z,100937.91
2019-03-08T13:48:27.742Z,100946.53
2019-03-08T13:50:54.954Z,100944.04
2019-03-08T13:53:22.190Z,100955.97
2019-03-08T13:55:49.385Z,100968.91
2019-03-08T13:58:16.571Z,100966.66
2019-03-08T14:00:44.227Z,100972.58
2019-03-08T14:03:11.380Z,100974.62
2019-03-08T14:05:38.580Z,100983.72
2019-03-08T14:08:05.777Z,100992.04
2019-03-08T14:10:32.963Z,100994.73
2019-03-08T14:13:00.187Z,101006.53
2019-03-08T14:15:27.390Z,101006.27
2019-03-08T14:17:54.931Z,101012.63
2019-03-08T14:20:22.140Z,101009.42
2019-03-08T14:22:49.332Z,101010.27
2019-03-08T14:25:16.561Z,101015.89
2019-03-08T14:27:43.752Z,101015.12
2019-03-08T14:30:12.811Z,101018.72
2019-03-08T14:32:39.978Z,101023.03
2019-03-08T14:35:07.220Z,101029.05
2019-03-08T14:37:34.429Z,101018.42
2019-03-08T14:40:03.891Z,101020.24
2019-03-08T14:42:40.415Z,101015.39
2019-03-08T14:45:16.949Z,101024.88
2019-03-08T14:47:46.427Z,101027.31
2019-03-08T14:50:13.649Z,101031.97
2019-03-08T14:52:40.921Z,101030.77
2019-03-08T14:55:13.884Z,101031.10
2019-03-08T14:57:41.231Z,101017.30
2019-03-08T15:00:12.557Z,101023.94
2019-03-08T15:02:39.710Z,101021.48
2019-03-08T15:05:11.055Z,101014.47
2019-03-08T15:07:37.250Z,101028.55
2019-03-08T15:10:06.074Z,101029.60
2019-03-08T15:12:36.470Z,101030.74
2019-03-08T15:15:07.327Z,101038.81
2019-03-08T15:17:33.338Z,101041.77
2019-03-08T15:20:00.685Z,101049.70
2019-03-08T15:22:27.858Z,101056.45
2019-03-08T15:24:55.032Z,101055.77
2019-03-08T15:27:22.233Z,101058.02
2019-03-08T15:29:54.554Z,101065.00
2019-03-08T15:32:18.559Z,101061.17
2019-03-08T15:34:45.847Z,101066.17
2019-03-08T15:37:13.159Z,101061.58
2019-03-08T15:39:40.353Z,101063.61
2019-03-08T15:42:07.671Z,101057.91
2019-03-08T15:44:34.864Z,101068.33
2019-03-08T15:47:02.039Z,101072.06
2019-03-08T15:49:30.512Z,101070.67
2019-03-08T15:51:59.869Z,101071.29
2019-03-08T15:54:27.593Z,101063.17
2019-03-08T15:56:54.828Z,101068.21
2019-03-08T15:59:21.980Z,101068.72
2019-03-08T16:01:49.143Z,101078.59
2019-03-08T16:04:18.960Z,101077.81
2019-03-08T16:06:46.262Z,101083.60
2019-03-08T16:09:13.443Z,101083.77
2019-03-08T16:11:40.637Z,101080.45
2019-03-08T16:14:09.067Z,101083.75
2019-03-08T16:16:36.597Z,101088.54
2019-03-08T16:19:03.785Z,101087.83
2019-03-08T16:21:30.941Z,101081.97
2019-03-08T16:23:58.178Z,101082.14
2019-03-08T16:26:26.381Z,101081.44
2019-03-08T16:28:53.763Z,101080.28
2019-03-08T16:31:52.727Z,101076.03
2019-03-08T16:34:19.997Z,101081.45
2019-03-08T16:37:06.960Z,101081.18
2019-03-08T16:39:52.545Z,101085.69
2019-03-08T16:42:45.517Z,101083.69
2019-03-08T16:45:32.353Z,101088.20
2019-03-08T16:48:27.962Z,101090.13
2019-03-08T16:51:14.725Z,101085.44
2019-03-08T16:54:07.089Z,101085.59
2019-03-08T16:57:05.797Z,101078.67
2019-03-08T16:59:58.506Z,101070.86
2019-03-08T17:02:45.689Z,101064.83
2019-03-08T17:05:30.886Z,101074.45
2019-03-08T17:08:16.495Z,101070.16
2019-03-08T17:11:06.474Z,101070.19
2019-03-08T17:13:54.753Z,101066.78
2019-03-08T17:16:32.144Z,101066.02
2019-03-08T17:19:11.926Z,101061.20
2019-03-08T17:21:52.775Z,101066.90
2019-03-08T17:24:39.357Z,101068.65
2019-03-08T17:27:39.859Z,101079.64
2019-03-08T17:30:29.953Z,101085.84
2019-03-08T17:33:15.662Z,101088.00
2019-03-08T17:35:58.931Z,101088.50
2019-03-08T17:38:45.772Z,101087.72
2019-03-08T17:41:36.611Z,101090.80
2019-03-08T17:44:23.363Z,101079.89
2019-03-08T17:47:12.891Z,101080.77
2019-03-08T17:50:17.607Z,101088.29
2019-03-08T17:53:10.141Z,101089.13
2019-03-08T17:55:45.428Z,101086.53
2019-03-08T17:58:26.720Z,101085.72
2019-03-08T18:01:07.866Z,101090.06
2019-03-08T18:03:54.632Z,101081.73
2019-03-08T18:06:44.230Z,101083.88
2019-03-08T18:09:36.892Z,101085.17
2019-03-08T18:12:32.817Z,101090.01
2019-03-08T18:15:13.398Z,101083.05
2019-03-08T18:17:51.687Z,101080.83
2019-03-08T18:20:43.227Z,101079.48
2019-03-08T18:23:32.770Z,101078.61
2019-03-08T18:26:08.118Z,101072.55
2019-03-08T18:28:53.103Z,101078.20
2019-03-08T18:31:28.649Z,101074.67
2019-03-08T18:34:04.610Z,101077.27
2019-03-08T18:36:51.506Z,101080.33
2019-03-08T18:39:27.612Z,101076.83
2019-03-08T18:42:12.906Z,101075.08
2019-03-08T18:44:54.593Z,101075.55
2019-03-08T18:47:27.880Z,101075.58
2019-03-08T18:50:05.040Z,101069.42
2019-03-08T18:53:03.962Z,101071.61
2019-03-08T18:55:43.209Z,101072.95
2019-03-08T18:58:35.610Z,101069.02
2019-03-08T19:01:20.881Z,101072.55
2019-03-08T19:04:09.267Z,101069.02
2019-03-08T19:06:55.307Z,101059.83
2019-03-08T19:09:30.111Z,101062.89
2019-03-08T19:12:15.599Z,101060.30
2019-03-08T19:14:57.588Z,101055.98
2019-03-08T19:17:53.280Z,101052.56
2019-03-08T19:20:33.917Z,101052.16
2019-03-08T19:23:09.293Z,101049.03
2019-03-08T19:25:45.540Z,101046.41
2019-03-08T19:28:32.245Z,101042.86
2019-03-08T19:31:37.072Z,101045.48
2019-03-08T19:34:21.374Z,101034.98
2019-03-08T19:37:05.990Z,101037.61
2019-03-08T19:39:51.599Z,101030.12
2019-03-08T19:42:28.151Z,101034.49
2019-03-08T19:45:15.231Z,101031.40
2019-03-08T19:47:54.549Z,101034.49
2019-03-08T19:50:41.319Z,101034.52
2019-03-08T19:53:24.354Z,101029.69
2019-03-08T19:56:12.393Z,101027.03
2019-03-08T19:58:57.756Z,101026.13
2019-03-08T20:02:00.001Z,101023.09
2019-03-08T20:04:55.946Z,101017.44
2019-03-08T20:07:37.242Z,101014.81
2019-03-08T20:10:22.279Z,101005.66
2019-03-08T20:13:04.415Z,101003.06
2019-03-08T20:15:48.826Z,100993.41
2019-03-08T20:18:36.639Z,100992.56
2019-03-08T20:21:09.879Z,100990.38
2019-03-08T20:23:46.568Z,100977.73
2019-03-08T20:26:39.467Z,100976.03
2019-03-08T20:29:32.112Z,100976.53
2019-03-08T20:32:31.073Z,100970.09
2019-03-08T20:35:06.866Z,100963.62
2019-03-08T20:37:52.953Z,100967.17
2019-03-08T20:40:48.847Z,100968.11
2019-03-08T20:43:20.499Z,100971.25
2019-03-08T20:45:55.824Z,100970.03
2019-03-08T20:48:23.005Z,100960.44
2019-03-08T20:50:50.283Z,100961.40
2019-03-08T20:53:17.485Z,100961.42
2019-03-08T20:55:44.854Z,100964.05
2019-03-08T20:58:13.242Z,100957.09
2019-03-08T21:00:40.618Z,100950.09
2019-03-08T21:03:07.815Z,100942.23
2019-03-08T21:05:35.028Z,100949.66
2019-03-08T21:08:02.292Z,100951.92
2019-03-08T21:10:30.123Z,100941.87
2019-03-08T21:12:57.321Z,100941.52
2019-03-08T21:15:25.612Z,100944.12
2019-03-08T21:17:53.382Z,100937.15
2019-03-08T21:20:20.547Z,100934.61
2019-03-08T21:22:47.745Z,100932.86
2019-03-08T21:25:15.156Z,100926.31
2019-03-08T21:27:42.337Z,100915.94
2019-03-08T21:30:12.781Z,100915.50
2019-03-08T21:32:40.002Z,100908.97
2019-03-08T21:35:07.265Z,100904.58
2019-03-08T21:37:34.607Z,100905.02
2019-03-08T21:40:02.009Z,100905.02
2019-03-08T21:42:29.198Z,100902.39
2019-03-08T21:44:56.426Z,100896.25
2019-03-08T21:47:23.636Z,100892.77
2019-03-08T21:49:50.842Z,100888.44
2019-03-08T21:52:18.079Z,100888.00
2019-03-08T21:54:45.486Z,100881.88
2019-03-08T21:57:12.752Z,100875.77
2019-03-08T21:59:39.905Z,100870.52
2019-03-08T22:02:07.146Z,100861.84
2019-03-08T22:04:38.946Z,100852.70
2019-03-08T22:07:06.164Z,100852.72
2019-03-08T22:09:50.130Z,100847.45
2019-03-08T22:12:17.359Z,100843.92
2019-03-08T22:14:44.594Z,100836.06
2019-03-08T22:17:11.826Z,100823.05
2019-03-08T22:19:39.203Z,100825.58
2019-03-08T22:22:06.394Z,100824.23
2019-03-08T22:24:33.626Z,100820.30
2019-03-08T22:27:00.819Z,100814.22
2019-03-08T22:29:28.105Z,100809.39
2019-03-08T22:31:55.321Z,100810.20
2019-03-08T22:34:22.521Z,100808.45
2019-03-08T22:36:49.754Z,100798.42
2019-03-08T22:39:16.957Z,100793.28
2019-03-08T22:41:44.146Z,100792.41
2019-03-08T22:44:11.310Z,100779.70
2019-03-08T22:46:45.134Z,100769.69
2019-03-08T22:49:07.664Z,100764.41
2019-03-08T22:51:34.900Z,100768.75
2019-03-08T22:54:02.175Z,100757.86
2019-03-08T22:56:29.408Z,100759.98
2019-03-08T22:58:56.575Z,100750.87
2019-03-08T23:01:24.252Z,100747.81
2019-03-08T23:03:51.406Z,100743.44
2019-03-08T23:06:18.626Z,100735.98
2019-03-08T23:08:45.832Z,100737.30
2019-03-08T23:11:13.052Z,100725.50
2019-03-08T23:13:40.243Z,100727.27
2019-03-08T23:16:07.458Z,100724.22
2019-03-08T23:18:34.636Z,100719.91
2019-03-08T23:21:01.789Z,100713.77
2019-03-08T23:23:28.987Z,100717.30
2019-03-08T23:25:56.171Z,100715.58
2019-03-08T23:28:31.748Z,100712.52
2019-03-08T23:31:03.378Z,100711.64
2019-03-08T23:33:30.608Z,100704.66
2019-03-08T23:35:57.810Z,100705.96
2019-03-08T23:38:25.040Z,100696.32
2019-03-08T23:40:52.244Z,100692.39
2019-03-08T23:43:19.485Z,100684.16
2019-03-08T23:45:46.680Z,100675.02
2019-03-08T23:48:13.859Z,100668.42
2019-03-08T23:50:41.120Z,100662.31
2019-03-08T23:53:08.283Z,100649.20
2019-03-08T23:55:35.467Z,100647.45
2019-03-08T23:58:02.617Z,100643.97
